createdAt,value
2018-06-16T00:00:59.148Z,3.17
2018-06-16T00:03:27.269Z,2.90
2018-06-16T00:05:55.377Z,2.70
2018-06-16T00:08:23.441Z,3.50
2018-06-16T00:10:51.308Z,3.97
2018-06-16T00:13:19.400Z,3.57
2018-06-16T00:15:47.480Z,4.27
2018-06-16T00:18:15.549Z,2.67
2018-06-16T00:20:43.620Z,4.30
2018-06-16T00:23:11.730Z,4.70
2018-06-16T00:25:39.825Z,2.87
2018-06-16T00:28:07.900Z,4.10
2018-06-16T00:30:35.968Z,3.67
2018-06-16T00:33:04.052Z,3.67
2018-06-16T00:35:32.161Z,3.60
2018-06-16T00:38:00.273Z,3.70
2018-06-16T00:40:28.396Z,4.70
2018-06-16T00:42:56.578Z,3.90
2018-06-16T00:45:24.734Z,4.17
2018-06-16T00:47:52.800Z,4.10
2018-06-16T00:50:20.856Z,2.60
2018-06-16T00:52:48.944Z,4.83
2018-06-16T00:55:16.995Z,3.57
2018-06-16T00:57:47.211Z,3.60
2018-06-16T01:00:16.421Z,3.13
2018-06-16T01:02:44.505Z,2.67
2018-06-16T01:05:12.797Z,3.73
2018-06-16T01:07:40.852Z,3.40
2018-06-16T01:10:10.233Z,3.80
2018-06-16T01:12:38.795Z,3.20
2018-06-16T01:15:06.947Z,3.93
2018-06-16T01:17:35.068Z,4.13
2018-06-16T01:20:03.324Z,2.70
2018-06-16T01:22:31.980Z,2.57
2018-06-16T01:25:00.188Z,1.87
2018-06-16T01:27:28.909Z,2.67
2018-06-16T01:29:57.209Z,3.33
2018-06-16T01:32:25.275Z,3.07
2018-06-16T01:34:53.346Z,3.50
2018-06-16T01:37:21.416Z,2.70
2018-06-16T01:39:49.524Z,3.00
2018-06-16T01:42:17.605Z,2.37
2018-06-16T01:44:45.680Z,3.20
2018-06-16T01:47:13.768Z,4.47
2018-06-16T01:49:41.835Z,3.83
2018-06-16T01:52:09.928Z,3.53
2018-06-16T01:54:37.992Z,3.00
2018-06-16T01:57:06.201Z,3.13
2018-06-16T01:59:34.300Z,3.07
2018-06-16T02:02:02.486Z,2.80
2018-06-16T02:04:30.589Z,3.13
2018-06-16T02:06:58.460Z,3.43
2018-06-16T02:09:26.561Z,2.03
2018-06-16T02:11:54.661Z,3.87
2018-06-16T02:14:23.235Z,3.50
2018-06-16T02:16:51.323Z,3.73
2018-06-16T02:19:19.593Z,3.83
2018-06-16T02:21:47.768Z,3.43
2018-06-16T02:24:15.861Z,4.40
2018-06-16T02:26:43.963Z,3.47
2018-06-16T02:29:12.049Z,2.80
2018-06-16T02:31:40.112Z,3.03
2018-06-16T02:34:08.196Z,3.50
2018-06-16T02:36:36.302Z,2.57
2018-06-16T02:39:06.041Z,3.30
2018-06-16T02:41:34.137Z,2.97
2018-06-16T02:44:02.232Z,3.93
2018-06-16T02:46:30.331Z,2.83
2018-06-16T02:48:58.481Z,3.27
2018-06-16T02:51:26.588Z,2.53
2018-06-16T02:53:54.663Z,2.50
2018-06-16T02:56:22.740Z,2.73
2018-06-16T02:58:50.791Z,3.47
2018-06-16T03:01:18.880Z,4.27
2018-06-16T03:03:46.956Z,2.73
2018-06-16T03:06:15.252Z,4.40
2018-06-16T03:08:43.320Z,2.97
2018-06-16T03:11:11.412Z,3.03
2018-06-16T03:13:39.487Z,3.13
2018-06-16T03:16:07.617Z,3.30
2018-06-16T03:18:35.693Z,3.93
2018-06-16T03:21:03.794Z,3.50
2018-06-16T03:23:31.919Z,2.67
2018-06-16T03:25:59.997Z,3.83
2018-06-16T03:28:28.097Z,3.40
2018-06-16T03:30:56.179Z,3.70
2018-06-16T03:33:24.270Z,3.23
2018-06-16T03:35:52.347Z,4.10
2018-06-16T03:38:20.436Z,3.20
2018-06-16T03:40:48.525Z,2.80
2018-06-16T03:43:16.590Z,3.20
2018-06-16T03:45:44.670Z,2.70
2018-06-16T03:48:12.734Z,3.07
2018-06-16T03:50:40.858Z,2.60
2018-06-16T03:53:08.972Z,3.77
2018-06-16T03:55:37.097Z,3.07
2018-06-16T03:58:05.212Z,3.07
2018-06-16T04:00:33.308Z,2.80
2018-06-16T04:03:01.504Z,3.70
2018-06-16T04:05:29.414Z,4.07
2018-06-16T04:07:57.532Z,3.10
2018-06-16T04:10:25.618Z,3.63
2018-06-16T04:12:53.779Z,2.97
2018-06-16T04:15:21.889Z,4.13
2018-06-16T04:17:49.993Z,3.27
2018-06-16T04:20:18.061Z,3.50
2018-06-16T04:22:46.131Z,4.37
2018-06-16T04:25:14.302Z,4.40
2018-06-16T04:27:42.406Z,2.77
2018-06-16T04:30:10.475Z,3.90
2018-06-16T04:32:38.693Z,2.63
2018-06-16T04:35:06.784Z,2.30
2018-06-16T04:37:34.917Z,2.17
2018-06-16T04:40:03.022Z,2.83
2018-06-16T04:42:31.153Z,4.43
2018-06-16T04:44:59.317Z,3.83
2018-06-16T04:47:27.455Z,4.03
2018-06-16T04:49:55.555Z,2.80
2018-06-16T04:52:23.621Z,4.17
2018-06-16T04:54:51.692Z,2.87
2018-06-16T04:57:19.635Z,2.63
2018-06-16T04:59:47.737Z,2.57
2018-06-16T05:02:15.803Z,3.63
2018-06-16T05:04:43.923Z,2.63
2018-06-16T05:07:11.997Z,3.53
2018-06-16T05:09:39.864Z,2.77
2018-06-16T05:12:07.958Z,2.97
2018-06-16T05:14:36.045Z,4.57
2018-06-16T05:17:04.241Z,2.90
2018-06-16T05:19:32.325Z,3.83
2018-06-16T05:22:00.452Z,4.20
2018-06-16T05:24:28.891Z,3.07
2018-06-16T05:26:56.985Z,3.37
2018-06-16T05:29:25.057Z,3.73
2018-06-16T05:31:53.160Z,3.37
2018-06-16T05:34:21.307Z,2.87
2018-06-16T05:36:49.380Z,3.47
2018-06-16T05:39:17.465Z,2.57
2018-06-16T05:41:45.616Z,3.93
2018-06-16T05:44:13.698Z,3.83
2018-06-16T05:46:41.901Z,4.40
2018-06-16T05:49:09.955Z,5.37
2018-06-16T05:51:38.036Z,3.80
2018-06-16T05:54:06.260Z,3.43
2018-06-16T05:56:34.392Z,2.80
2018-06-16T05:59:02.484Z,4.57
2018-06-16T06:01:30.601Z,4.23
2018-06-16T06:03:58.789Z,3.00
2018-06-16T06:06:26.981Z,4.47
2018-06-16T06:08:55.074Z,4.00
2018-06-16T06:11:23.177Z,3.93
2018-06-16T06:13:51.381Z,3.17
2018-06-16T06:16:19.461Z,4.00
2018-06-16T06:18:47.633Z,4.93
2018-06-16T06:21:15.701Z,3.63
2018-06-16T06:23:43.769Z,4.30
2018-06-16T06:26:11.840Z,3.87
2018-06-16T06:28:40.009Z,3.77
2018-06-16T06:31:08.084Z,4.13
2018-06-16T06:33:36.245Z,3.17
2018-06-16T06:36:04.511Z,4.97
2018-06-16T06:38:32.617Z,3.73
2018-06-16T06:41:00.794Z,5.50
2018-06-16T06:43:29.011Z,3.53
2018-06-16T06:45:57.129Z,3.43
2018-06-16T06:48:25.226Z,3.20
2018-06-16T06:50:53.304Z,4.83
2018-06-16T06:53:21.434Z,4.77
2018-06-16T06:55:49.503Z,4.77
2018-06-16T06:58:17.572Z,6.73
2018-06-16T07:00:45.712Z,3.93
2018-06-16T07:03:13.800Z,3.17
2018-06-16T07:05:41.887Z,4.13
2018-06-16T07:08:09.957Z,4.53
2018-06-16T07:10:38.061Z,4.03
2018-06-16T07:13:06.147Z,3.03
2018-06-16T07:15:34.296Z,3.20
2018-06-16T07:18:02.461Z,3.80
2018-06-16T07:20:30.610Z,6.97
2018-06-16T07:22:58.731Z,3.60
2018-06-16T07:25:26.862Z,3.93
2018-06-16T07:27:54.914Z,4.57
2018-06-16T07:30:24.011Z,6.23
2018-06-16T07:32:52.133Z,4.47
2018-06-16T07:35:20.204Z,3.30
2018-06-16T07:37:48.304Z,3.50
2018-06-16T07:40:16.413Z,3.00
2018-06-16T07:42:44.593Z,4.23
2018-06-16T07:45:12.669Z,5.07
2018-06-16T07:47:40.780Z,4.10
2018-06-16T07:50:08.960Z,5.70
2018-06-16T07:52:37.048Z,3.17
2018-06-16T07:55:05.377Z,3.90
2018-06-16T07:57:33.476Z,4.07
2018-06-16T08:00:01.630Z,3.50
2018-06-16T08:02:29.797Z,3.67
2018-06-16T08:04:57.909Z,4.93
2018-06-16T08:07:26.026Z,4.33
2018-06-16T08:09:54.125Z,6.20
2018-06-16T08:12:22.196Z,3.77
2018-06-16T08:14:50.276Z,5.43
2018-06-16T08:17:18.336Z,5.37
2018-06-16T08:19:46.435Z,4.13
2018-06-16T08:22:14.601Z,2.73
2018-06-16T08:24:42.807Z,3.57
2018-06-16T08:27:10.988Z,3.30
2018-06-16T08:29:39.112Z,3.13
2018-06-16T08:32:07.256Z,3.50
2018-06-16T08:34:35.361Z,4.00
2018-06-16T08:37:03.520Z,3.73
2018-06-16T08:39:31.702Z,3.83
2018-06-16T08:41:59.919Z,4.23
2018-06-16T08:44:28.026Z,3.50
2018-06-16T08:46:56.110Z,5.93
2018-06-16T08:49:24.235Z,3.30
2018-06-16T08:51:52.312Z,6.20
2018-06-16T08:54:20.437Z,3.20
2018-06-16T08:56:48.597Z,6.23
2018-06-16T08:59:16.479Z,14.40
2018-06-16T09:01:44.411Z,11.63
2018-06-16T09:04:12.592Z,13.47
2018-06-16T09:06:40.708Z,13.90
2018-06-16T09:09:09.368Z,7.30
2018-06-16T09:11:37.611Z,57.80
2018-06-16T09:14:05.769Z,65.73
2018-06-16T09:16:34.282Z,43.00
2018-06-16T09:19:02.470Z,30.20
2018-06-16T09:21:30.596Z,19.40
2018-06-16T09:23:58.714Z,14.40
2018-06-16T09:26:26.858Z,10.07
2018-06-16T09:28:54.961Z,9.23
2018-06-16T09:31:23.084Z,12.53
2018-06-16T09:33:51.209Z,10.77
2018-06-16T09:36:19.403Z,10.53
2018-06-16T09:38:47.405Z,7.70
2018-06-16T09:41:15.509Z,10.23
2018-06-16T09:43:43.672Z,11.33
2018-06-16T09:46:11.778Z,13.03
2018-06-16T09:48:39.887Z,11.67
2018-06-16T09:51:07.814Z,53.20
2018-06-16T09:53:35.940Z,20.47
2018-06-16T09:56:04.241Z,24.17
2018-06-16T09:58:32.147Z,20.97
2018-06-16T10:01:00.344Z,11.13
2018-06-16T10:03:28.642Z,11.20
2018-06-16T10:05:56.819Z,12.77
2018-06-16T10:08:25.033Z,12.50
2018-06-16T10:10:53.140Z,16.03
2018-06-16T10:13:21.229Z,10.63
2018-06-16T10:15:49.337Z,10.03
2018-06-16T10:18:17.201Z,10.20
2018-06-16T10:20:45.068Z,11.63
2018-06-16T10:23:13.191Z,10.63
2018-06-16T10:25:41.287Z,13.27
2018-06-16T10:28:09.397Z,12.27
2018-06-16T10:30:37.491Z,8.80
2018-06-16T10:33:05.644Z,11.37
2018-06-16T10:35:33.803Z,12.33
2018-06-16T10:38:01.904Z,13.60
2018-06-16T10:40:30.152Z,7.33
2018-06-16T10:42:58.475Z,12.23
2018-06-16T10:45:26.597Z,12.13
2018-06-16T10:47:54.737Z,14.07
2018-06-16T10:50:22.812Z,12.53
2018-06-16T10:52:51.000Z,11.40
2018-06-16T10:55:19.120Z,13.93
2018-06-16T10:57:47.189Z,26.43
2018-06-16T11:00:15.137Z,19.27
2018-06-16T11:02:43.400Z,16.33
2018-06-16T11:05:11.527Z,15.97
2018-06-16T11:07:39.442Z,17.00
2018-06-16T11:10:07.594Z,12.63
2018-06-16T11:12:35.717Z,10.87
2018-06-16T11:15:03.833Z,12.10
2018-06-16T11:17:31.912Z,8.20
2018-06-16T11:20:00.196Z,13.00
2018-06-16T11:22:28.293Z,13.10
2018-06-16T11:24:56.451Z,10.67
2018-06-16T11:27:24.676Z,15.57
2018-06-16T11:29:52.732Z,10.60
2018-06-16T11:32:20.886Z,11.40
2018-06-16T11:34:48.974Z,14.63
2018-06-16T11:37:17.163Z,13.23
2018-06-16T11:39:45.284Z,14.83
2018-06-16T11:42:13.377Z,12.17
2018-06-16T11:44:41.501Z,8.07
2018-06-16T11:47:09.577Z,14.20
2018-06-16T11:49:37.656Z,16.70
2018-06-16T11:52:05.834Z,20.30
2018-06-16T11:54:34.010Z,13.90
2018-06-16T11:57:02.296Z,15.00
2018-06-16T11:59:30.534Z,9.30
2018-06-16T12:01:58.743Z,15.33
2018-06-16T12:04:27.908Z,11.83
2018-06-16T12:06:56.030Z,14.13
2018-06-16T12:09:24.160Z,18.47
2018-06-16T12:11:52.240Z,13.30
2018-06-16T12:14:20.316Z,18.87
2018-06-16T12:16:48.401Z,16.77
2018-06-16T12:19:16.487Z,13.10
2018-06-16T12:21:44.581Z,14.80
2018-06-16T12:24:12.688Z,12.63
2018-06-16T12:26:40.809Z,15.23
2018-06-16T12:29:08.948Z,13.33
2018-06-16T12:31:37.024Z,16.77
2018-06-16T12:34:05.002Z,11.17
2018-06-16T12:36:33.285Z,10.27
2018-06-16T12:39:01.437Z,8.57
2018-06-16T12:41:30.026Z,7.23
2018-06-16T12:43:58.176Z,9.07
2018-06-16T12:46:26.420Z,12.03
2018-06-16T12:48:54.833Z,10.00
2018-06-16T12:51:22.727Z,15.13
2018-06-16T12:53:50.696Z,10.87
2018-06-16T12:56:18.825Z,11.37
2018-06-16T12:58:46.913Z,11.30
2018-06-16T13:01:15.188Z,14.73
2018-06-16T13:03:43.276Z,9.83
2018-06-16T13:06:11.516Z,10.23
2018-06-16T13:08:39.612Z,12.40
2018-06-16T13:11:07.808Z,15.33
2018-06-16T13:13:35.893Z,17.57
2018-06-16T13:16:03.851Z,18.03
2018-06-16T13:18:31.995Z,17.37
2018-06-16T13:21:00.104Z,38.90
2018-06-16T13:23:28.479Z,36.50
2018-06-16T13:25:56.696Z,41.40
2018-06-16T13:28:24.828Z,43.23
2018-06-16T13:30:52.944Z,32.63
2018-06-16T13:33:21.116Z,32.00
2018-06-16T13:35:49.239Z,29.20
2018-06-16T13:38:17.308Z,32.03
2018-06-16T13:40:45.384Z,35.10
2018-06-16T13:43:13.473Z,27.43
2018-06-16T13:45:41.527Z,33.33
2018-06-16T13:48:09.652Z,23.87
2018-06-16T13:50:37.833Z,30.63
2018-06-16T13:53:05.953Z,25.30
2018-06-16T13:55:34.060Z,29.07
2018-06-16T13:58:02.250Z,23.77
2018-06-16T14:00:30.358Z,27.67
2018-06-16T14:02:58.645Z,23.23
2018-06-16T14:05:26.764Z,35.40
2018-06-16T14:07:54.901Z,34.47
2018-06-16T14:10:22.820Z,23.13
2018-06-16T14:12:51.128Z,30.27
2018-06-16T14:15:19.200Z,25.67
2018-06-16T14:17:47.269Z,30.20
2018-06-16T14:20:15.656Z,22.47
2018-06-16T14:22:43.808Z,19.80
2018-06-16T14:25:11.924Z,26.03
2018-06-16T14:27:40.048Z,21.23
2018-06-16T14:30:08.329Z,21.10
2018-06-16T14:32:36.439Z,18.53
2018-06-16T14:35:04.590Z,18.23
2018-06-16T14:37:32.637Z,16.47
2018-06-16T14:40:00.731Z,23.60
2018-06-16T14:42:28.802Z,28.00
2018-06-16T14:44:56.735Z,20.00
2018-06-16T14:47:24.804Z,16.63
2018-06-16T14:49:52.888Z,19.53
2018-06-16T14:52:21.147Z,19.60
2018-06-16T14:54:49.049Z,18.97
2018-06-16T14:57:17.315Z,17.13
2018-06-16T14:59:45.401Z,18.00
2018-06-16T15:02:13.849Z,17.80
2018-06-16T15:04:42.080Z,19.03
2018-06-16T15:07:10.173Z,16.93
2018-06-16T15:09:38.276Z,12.53
2018-06-16T15:12:06.676Z,14.30
2018-06-16T15:14:34.794Z,20.23
2018-06-16T15:17:02.901Z,17.63
2018-06-16T15:19:30.848Z,17.00
2018-06-16T15:21:58.940Z,21.20
2018-06-16T15:24:26.907Z,24.53
2018-06-16T15:26:54.982Z,30.20
2018-06-16T15:29:23.248Z,18.20
2018-06-16T15:31:51.420Z,19.20
2018-06-16T15:34:19.589Z,22.47
2018-06-16T15:36:47.507Z,25.63
2018-06-16T15:39:15.592Z,17.60
2018-06-16T15:41:43.701Z,19.23
2018-06-16T15:44:11.976Z,12.47
2018-06-16T15:46:40.060Z,20.50
2018-06-16T15:49:08.164Z,15.50
2018-06-16T15:51:36.342Z,17.07
2018-06-16T15:54:04.445Z,16.73
2018-06-16T15:56:32.585Z,10.27
2018-06-16T15:59:00.661Z,10.73
2018-06-16T16:01:28.725Z,17.87
2018-06-16T16:03:56.832Z,15.87
2018-06-16T16:06:24.912Z,16.53
2018-06-16T16:08:53.066Z,17.47
2018-06-16T16:11:21.012Z,17.67
2018-06-16T16:13:49.076Z,14.80
2018-06-16T16:16:17.272Z,12.87
2018-06-16T16:18:45.381Z,10.70
2018-06-16T16:21:13.488Z,13.70
2018-06-16T16:23:41.631Z,10.20
2018-06-16T16:26:09.776Z,9.87
2018-06-16T16:28:37.889Z,15.13
2018-06-16T16:31:06.049Z,10.73
2018-06-16T16:33:34.145Z,16.47
2018-06-16T16:36:02.242Z,12.73
2018-06-16T16:38:30.356Z,10.57
2018-06-16T16:40:58.467Z,13.87
2018-06-16T16:43:26.412Z,10.70
2018-06-16T16:45:54.484Z,10.53
2018-06-16T16:48:22.552Z,9.43
2018-06-16T16:50:50.641Z,9.07
2018-06-16T16:53:18.721Z,10.47
2018-06-16T16:55:46.808Z,29.77
2018-06-16T16:58:14.893Z,9.27
2018-06-16T17:00:43.165Z,8.03
2018-06-16T17:03:11.278Z,7.80
2018-06-16T17:05:39.376Z,6.63
2018-06-16T17:08:07.500Z,6.07
2018-06-16T17:10:35.614Z,6.23
2018-06-16T17:13:03.710Z,8.20
2018-06-16T17:15:31.824Z,6.23
2018-06-16T17:17:59.896Z,6.10
2018-06-16T17:20:27.976Z,4.60
2018-06-16T17:22:56.048Z,7.27
2018-06-16T17:25:24.268Z,5.50
2018-06-16T17:27:52.352Z,4.33
2018-06-16T17:30:20.481Z,4.70
2018-06-16T17:32:48.579Z,5.07
2018-06-16T17:35:16.764Z,5.70
2018-06-16T17:37:44.885Z,4.73
2018-06-16T17:40:13.048Z,6.87
2018-06-16T17:42:41.227Z,3.93
2018-06-16T17:45:09.392Z,4.80
2018-06-16T17:47:37.618Z,5.37
2018-06-16T17:50:05.802Z,4.40
2018-06-16T17:52:33.860Z,4.73
2018-06-16T17:55:01.941Z,4.87
2018-06-16T17:57:30.013Z,6.70
2018-06-16T17:59:58.200Z,4.77
2018-06-16T18:02:26.455Z,4.03
2018-06-16T18:04:54.669Z,4.03
2018-06-16T18:07:22.697Z,4.60
2018-06-16T18:09:50.776Z,3.50
2018-06-16T18:12:18.883Z,5.07
2018-06-16T18:14:46.971Z,3.33
2018-06-16T18:17:15.061Z,4.83
2018-06-16T18:19:43.212Z,4.03
2018-06-16T18:22:11.360Z,5.20
2018-06-16T18:24:39.493Z,4.37
2018-06-16T18:27:07.646Z,6.93
2018-06-16T18:29:35.753Z,5.17
2018-06-16T18:32:03.862Z,4.53
2018-06-16T18:34:31.949Z,3.60
2018-06-16T18:37:00.038Z,3.90
2018-06-16T18:39:28.155Z,6.17
2018-06-16T18:41:56.232Z,4.67
2018-06-16T18:44:24.544Z,4.47
2018-06-16T18:46:52.456Z,5.50
2018-06-16T18:49:20.524Z,5.50
2018-06-16T18:51:48.591Z,4.97
2018-06-16T18:54:16.702Z,4.73
2018-06-16T18:56:44.812Z,3.93
2018-06-16T18:59:13.022Z,4.13
2018-06-16T19:01:41.177Z,5.80
2018-06-16T19:04:09.291Z,5.07
2018-06-16T19:06:37.445Z,3.73
2018-06-16T19:09:07.446Z,4.13
2018-06-16T19:11:35.689Z,4.07
2018-06-16T19:14:03.753Z,4.87
2018-06-16T19:16:31.837Z,5.07
2018-06-16T19:19:00.068Z,4.50
2018-06-16T19:21:28.172Z,4.90
2018-06-16T19:23:56.249Z,4.80
2018-06-16T19:26:24.398Z,4.30
2018-06-16T19:28:52.476Z,6.63
2018-06-16T19:31:20.602Z,5.90
2018-06-16T19:33:48.692Z,6.03
2018-06-16T19:36:16.793Z,6.67
2018-06-16T19:38:44.887Z,5.43
2018-06-16T19:41:13.010Z,4.77
2018-06-16T19:43:41.145Z,6.33
2018-06-16T19:46:09.313Z,5.27
2018-06-16T19:48:37.457Z,5.33
2018-06-16T19:51:05.574Z,4.80
2018-06-16T19:53:33.521Z,7.33
2018-06-16T19:56:01.605Z,5.23
2018-06-16T19:58:29.688Z,6.33
2018-06-16T20:00:57.841Z,6.17
2018-06-16T20:03:25.938Z,6.17
2018-06-16T20:06:00.847Z,5.57
2018-06-16T20:08:28.908Z,5.03
2018-06-16T20:10:57.046Z,6.27
2018-06-16T20:13:25.152Z,6.63
2018-06-16T20:15:53.252Z,5.47
2018-06-16T20:18:21.345Z,6.57
2018-06-16T20:20:49.420Z,5.70
2018-06-16T20:23:17.562Z,5.73
2018-06-16T20:25:45.652Z,5.73
2018-06-16T20:28:13.747Z,6.27
2018-06-16T20:30:41.849Z,5.90
2018-06-16T20:33:09.997Z,7.43
2018-06-16T20:35:38.168Z,6.33
2018-06-16T20:38:06.057Z,7.47
2018-06-16T20:40:34.154Z,6.03
2018-06-16T20:43:02.256Z,6.90
2018-06-16T20:45:30.319Z,6.20
2018-06-16T20:47:58.456Z,6.37
2018-06-16T20:50:26.552Z,5.70
2018-06-16T20:52:54.624Z,7.40
2018-06-16T20:55:22.709Z,7.77
2018-06-16T20:57:50.777Z,7.90
2018-06-16T21:00:18.849Z,7.60
2018-06-16T21:02:46.951Z,6.70
2018-06-16T21:05:15.061Z,7.00
2018-06-16T21:07:43.196Z,6.90
2018-06-16T21:10:11.304Z,7.93
2018-06-16T21:12:39.625Z,7.50
2018-06-16T21:15:07.716Z,6.03
2018-06-16T21:17:36.389Z,6.57
2018-06-16T21:20:04.813Z,7.07
2018-06-16T21:22:32.880Z,7.00
2018-06-16T21:25:01.044Z,8.50
2018-06-16T21:27:29.106Z,7.37
2018-06-16T21:29:57.186Z,7.57
2018-06-16T21:32:25.255Z,7.57
2018-06-16T21:34:53.492Z,7.83
2018-06-16T21:37:21.572Z,7.70
2018-06-16T21:39:49.652Z,7.60
2018-06-16T21:42:17.728Z,7.97
2018-06-16T21:44:45.856Z,6.40
2018-06-16T21:47:13.820Z,6.90
2018-06-16T21:49:41.921Z,7.23
2018-06-16T21:52:10.039Z,6.93
2018-06-16T21:54:38.165Z,6.53
2018-06-16T21:57:06.785Z,7.00
2018-06-16T21:59:35.021Z,7.10
2018-06-16T22:02:03.081Z,6.63
2018-06-16T22:04:31.281Z,7.37
2018-06-16T22:06:59.408Z,6.43
2018-06-16T22:09:27.528Z,6.67
2018-06-16T22:11:55.707Z,7.70
2018-06-16T22:14:23.867Z,7.67
2018-06-16T22:16:51.969Z,7.13
2018-06-16T22:19:20.203Z,6.73
2018-06-16T22:21:48.328Z,7.30
2018-06-16T22:24:16.400Z,7.37
2018-06-16T22:26:44.497Z,7.33
2018-06-16T22:29:12.600Z,7.90
2018-06-16T22:31:40.685Z,7.93
2018-06-16T22:34:08.854Z,7.57
2018-06-16T22:36:37.054Z,9.00
2018-06-16T22:39:08.273Z,8.30
2018-06-16T22:41:36.403Z,8.80
2018-06-16T22:44:04.572Z,8.17
2018-06-16T22:46:32.632Z,9.07
2018-06-16T22:49:00.717Z,9.27
2018-06-16T22:51:28.837Z,9.27
2018-06-16T22:53:56.960Z,8.40
2018-06-16T22:56:25.033Z,8.67
2018-06-16T22:58:53.122Z,9.53
2018-06-16T23:01:21.280Z,9.10
2018-06-16T23:03:49.452Z,9.70
2018-06-16T23:06:17.604Z,9.20
2018-06-16T23:08:45.750Z,9.87
2018-06-16T23:11:13.921Z,10.87
2018-06-16T23:13:42.148Z,9.67
2018-06-16T23:16:10.262Z,10.03
2018-06-16T23:18:38.441Z,10.60
2018-06-16T23:21:06.579Z,9.43
2018-06-16T23:23:34.662Z,9.30
2018-06-16T23:26:02.742Z,10.77
2018-06-16T23:28:30.861Z,10.00
2018-06-16T23:30:58.972Z,9.57
2018-06-16T23:33:27.136Z,10.50
2018-06-16T23:35:55.246Z,9.73
2018-06-16T23:38:23.353Z,9.80
2018-06-16T23:40:51.444Z,10.53
2018-06-16T23:43:19.524Z,11.13
2018-06-16T23:45:47.608Z,10.47
2018-06-16T23:48:15.736Z,11.30
2018-06-16T23:50:43.899Z,11.10
2018-06-16T23:53:11.853Z,10.93
2018-06-16T23:55:39.977Z,10.50
2018-06-16T23:58:08.118Z,10.43
